createdAt,value
2023-03-10T00:00:56.757Z,100.00
2023-03-10T00:06:00.330Z,100.00
2023-03-10T00:11:05.165Z,100.00
2023-03-10T00:16:09.540Z,100.00
2023-03-10T00:21:15.641Z,100.00
2023-03-10T00:26:22.258Z,100.00
2023-03-10T00:31:31.487Z,100.00
2023-03-10T00:36:34.947Z,100.00
2023-03-10T00:41:40.197Z,100.00
2023-03-10T00:46:43.609Z,100.00
2023-03-10T00:51:47.066Z,100.00
2023-03-10T00:56:51.557Z,100.00
2023-03-10T01:01:54.823Z,100.00
2023-03-10T01:06:58.174Z,100.00
2023-03-10T01:12:02.779Z,100.00
2023-03-10T01:17:06.307Z,100.00
2023-03-10T01:22:09.573Z,100.00
2023-03-10T01:27:14.127Z,100.00
2023-03-10T01:32:17.468Z,100.00
2023-03-10T01:37:21.229Z,100.00
2023-03-10T01:42:32.886Z,100.00
2023-03-10T01:47:36.242Z,100.00
2023-03-10T01:52:39.553Z,100.00
2023-03-10T01:57:50.340Z,100.00
2023-03-10T02:02:59.192Z,100.00
2023-03-10T02:08:04.747Z,100.00
2023-03-10T02:13:09.372Z,100.00
2023-03-10T02:18:16.435Z,100.00
2023-03-10T02:23:29.630Z,100.00
2023-03-10T02:28:35.302Z,100.00
2023-03-10T02:33:39.485Z,100.00
2023-03-10T02:38:42.751Z,100.00
2023-03-10T02:43:49.283Z,100.00
2023-03-10T02:48:53.983Z,100.00
2023-03-10T02:53:58.092Z,100.00
2023-03-10T02:59:03.369Z,100.00
2023-03-10T03:04:07.467Z,100.00
2023-03-10T03:09:10.737Z,100.00
2023-03-10T03:14:17.169Z,100.00
2023-03-10T03:19:21.565Z,100.00
2023-03-10T03:24:24.781Z,100.00
2023-03-10T03:29:29.575Z,100.00
2023-03-10T03:34:32.788Z,100.00
2023-03-10T03:39:36.019Z,100.00
2023-03-10T03:44:40.640Z,100.00
2023-03-10T03:49:44.159Z,100.00
2023-03-10T03:54:47.410Z,100.00
2023-03-10T03:59:52.073Z,100.00
2023-03-10T04:04:55.545Z,100.00
2023-03-10T04:09:58.970Z,100.00
2023-03-10T04:15:03.896Z,100.00
2023-03-10T04:20:09.501Z,100.00
2023-03-10T04:25:13.064Z,100.00
2023-03-10T04:30:17.784Z,100.00
2023-03-10T04:35:21.205Z,100.00
2023-03-10T04:40:24.763Z,100.00
2023-03-10T04:45:29.456Z,100.00
2023-03-10T04:50:32.763Z,100.00
2023-03-10T04:55:35.842Z,100.00
2023-03-10T05:00:53.102Z,100.00
2023-03-10T05:06:03.799Z,100.00
2023-03-10T05:11:07.676Z,100.00
2023-03-10T05:16:16.522Z,100.00
2023-03-10T05:21:21.668Z,100.00
2023-03-10T05:26:24.985Z,100.00
2023-03-10T05:31:29.877Z,100.00
2023-03-10T05:36:33.174Z,100.00
2023-03-10T05:41:37.578Z,100.00
2023-03-10T05:46:49.423Z,100.00
2023-03-10T05:51:53.379Z,100.00
2023-03-10T05:56:56.471Z,100.00
2023-03-10T06:02:01.076Z,100.00
2023-03-10T06:07:06.120Z,100.00
2023-03-10T06:12:09.952Z,100.00
2023-03-10T06:17:14.629Z,100.00
2023-03-10T06:22:20.842Z,100.00
2023-03-10T06:27:24.192Z,100.00
2023-03-10T06:32:31.847Z,100.00
2023-03-10T06:37:35.343Z,100.00
2023-03-10T06:42:42.431Z,100.00
2023-03-10T06:47:50.128Z,100.00
2023-03-10T06:52:58.984Z,100.00
2023-03-10T06:58:02.250Z,100.00
2023-03-10T07:03:06.986Z,100.00
2023-03-10T07:08:11.090Z,100.00
2023-03-10T07:13:16.435Z,100.00
2023-03-10T07:18:21.378Z,100.00
2023-03-10T07:23:25.020Z,100.00
2023-03-10T07:28:28.680Z,100.00
2023-03-10T07:33:33.493Z,100.00
2023-03-10T07:38:36.932Z,100.00
2023-03-10T07:43:40.412Z,97.59
2023-03-10T07:48:45.356Z,97.58
2023-03-10T07:53:49.044Z,97.49
2023-03-10T07:58:52.216Z,96.04
2023-03-10T08:03:58.253Z,91.51
2023-03-10T08:09:01.803Z,87.05
2023-03-10T08:14:05.099Z,82.64
2023-03-10T08:19:09.888Z,76.39
2023-03-10T08:24:13.371Z,80.81
2023-03-10T08:29:16.539Z,79.50
2023-03-10T08:34:21.649Z,77.53
2023-03-10T08:39:27.559Z,72.39
2023-03-10T08:44:31.622Z,69.27
2023-03-10T08:49:37.145Z,67.39
2023-03-10T08:54:40.444Z,70.75
2023-03-10T08:59:43.713Z,70.04
2023-03-10T09:04:48.661Z,67.54
2023-03-10T09:09:52.041Z,67.15
2023-03-10T09:14:55.263Z,64.83
2023-03-10T09:19:59.960Z,64.61
2023-03-10T09:25:03.221Z,64.06
2023-03-10T09:30:07.478Z,65.64
2023-03-10T09:35:12.836Z,65.53
2023-03-10T09:40:18.959Z,66.17
2023-03-10T09:45:28.024Z,66.56
2023-03-10T09:50:37.344Z,67.53
2023-03-10T09:55:47.784Z,67.38
2023-03-10T10:00:51.602Z,68.19
2023-03-10T10:05:58.934Z,69.32
2023-03-10T10:11:04.279Z,69.30
2023-03-10T10:16:31.878Z,68.68
2023-03-10T10:21:48.665Z,69.51
2023-03-10T10:26:51.891Z,69.02
2023-03-10T10:32:05.886Z,68.51
2023-03-10T10:37:30.843Z,68.33
2023-03-10T10:42:35.704Z,68.19
2023-03-10T10:47:49.613Z,67.84
2023-03-10T10:53:19.876Z,67.08
2023-03-10T10:58:29.996Z,67.50
2023-03-10T11:03:37.091Z,67.73
2023-03-10T11:08:45.145Z,67.40
2023-03-10T11:14:01.499Z,67.53
2023-03-10T11:19:10.428Z,67.02
2023-03-10T11:24:26.010Z,66.65
2023-03-10T11:29:44.125Z,66.63
2023-03-10T11:34:51.766Z,66.57
2023-03-10T11:40:08.278Z,67.36
2023-03-10T11:45:25.707Z,66.32
2023-03-10T11:50:38.245Z,65.87
2023-03-10T11:55:44.667Z,66.54
2023-03-10T12:00:48.994Z,66.44
2023-03-10T12:05:55.809Z,66.92
2023-03-10T12:11:01.966Z,67.18
2023-03-10T12:16:20.276Z,67.30
2023-03-10T12:21:26.200Z,67.29
2023-03-10T12:27:02.895Z,68.06
2023-03-10T12:32:07.116Z,69.59
2023-03-10T12:37:13.222Z,70.25
2023-03-10T12:42:32.392Z,73.99
2023-03-10T12:47:54.448Z,72.80
2023-03-10T12:53:04.961Z,73.46
2023-03-10T12:58:18.855Z,73.76
2023-03-10T13:03:35.556Z,73.14
2023-03-10T13:08:44.600Z,71.97
2023-03-10T13:13:52.641Z,71.71
2023-03-10T13:18:56.615Z,70.86
2023-03-10T13:24:00.851Z,69.56
2023-03-10T13:29:05.677Z,69.33
2023-03-10T13:34:21.477Z,68.99
2023-03-10T13:39:28.060Z,69.54
2023-03-10T13:44:41.959Z,69.19
2023-03-10T13:49:49.652Z,68.94
2023-03-10T13:54:53.489Z,69.89
2023-03-10T13:59:59.270Z,70.19
2023-03-10T14:05:02.710Z,69.29
2023-03-10T14:10:15.289Z,70.13
2023-03-10T14:15:38.261Z,70.00
2023-03-10T14:20:43.572Z,70.02
2023-03-10T14:25:47.823Z,69.52
2023-03-10T14:30:53.412Z,68.81
2023-03-10T14:35:56.730Z,68.45
2023-03-10T14:40:59.854Z,69.38
2023-03-10T14:46:05.989Z,69.56
2023-03-10T14:51:36.234Z,69.62
2023-03-10T14:56:40.076Z,68.87
2023-03-10T15:01:47.135Z,68.99
2023-03-10T15:06:53.275Z,68.70
2023-03-10T15:11:57.468Z,68.72
2023-03-10T15:17:04.374Z,70.17
2023-03-10T15:27:32.681Z,69.02
2023-03-10T15:32:37.432Z,68.63
2023-03-10T15:37:40.889Z,69.30
2023-03-10T15:42:44.010Z,70.10
2023-03-10T15:47:48.953Z,70.11
2023-03-10T15:52:54.955Z,70.82
2023-03-10T15:57:58.459Z,71.34
2023-03-10T16:03:03.070Z,71.73
2023-03-10T16:08:07.083Z,72.47
2023-03-10T16:13:10.452Z,72.40
2023-03-10T16:18:15.724Z,72.58
2023-03-10T16:23:19.946Z,71.69
2023-03-10T16:28:23.214Z,71.45
2023-03-10T16:33:27.795Z,71.49
2023-03-10T16:38:31.207Z,70.80
2023-03-10T16:43:35.752Z,70.72
2023-03-10T16:48:42.801Z,71.48
2023-03-10T16:53:46.696Z,72.13
2023-03-10T16:59:25.852Z,74.40
2023-03-10T17:04:47.459Z,75.58
2023-03-10T17:09:56.268Z,76.73
2023-03-10T17:14:59.832Z,77.46
2023-03-10T17:20:07.533Z,78.33
2023-03-10T17:25:14.962Z,78.86
2023-03-10T17:30:20.312Z,79.20
2023-03-10T17:35:25.126Z,78.44
2023-03-10T17:40:28.656Z,79.02
2023-03-10T17:45:31.715Z,80.34
2023-03-10T17:50:36.183Z,80.41
2023-03-10T17:55:39.403Z,81.01
2023-03-10T18:00:43.508Z,82.58
2023-03-10T18:05:48.357Z,82.84
2023-03-10T18:11:01.217Z,84.21
2023-03-10T18:16:11.161Z,84.97
2023-03-10T18:21:22.753Z,85.72
2023-03-10T18:26:33.876Z,85.66
2023-03-10T18:31:37.949Z,86.71
2023-03-10T18:36:42.696Z,87.37
2023-03-10T18:41:46.021Z,88.37
2023-03-10T18:46:50.714Z,89.53
2023-03-10T18:51:55.297Z,90.88
2023-03-10T18:57:02.032Z,91.32
2023-03-10T19:02:05.498Z,91.92
2023-03-10T19:07:15.222Z,93.97
2023-03-10T19:12:19.578Z,95.39
2023-03-10T19:17:26.640Z,96.70
2023-03-10T19:22:42.727Z,97.64
2023-03-10T19:27:46.377Z,98.57
2023-03-10T19:32:50.226Z,97.82
2023-03-10T19:37:59.656Z,97.59
2023-03-10T19:43:15.142Z,98.72
2023-03-10T19:48:21.436Z,100.00
2023-03-10T19:54:06.063Z,100.00
2023-03-10T19:59:10.259Z,100.00
2023-03-10T20:04:13.628Z,100.00
2023-03-10T20:09:19.121Z,100.00
2023-03-10T20:14:26.939Z,100.00
2023-03-10T20:19:32.513Z,100.00
2023-03-10T20:24:37.207Z,100.00
2023-03-10T20:29:57.363Z,100.00
2023-03-10T20:35:01.187Z,100.00
2023-03-10T20:40:07.625Z,100.00
2023-03-10T20:45:11.961Z,100.00
2023-03-10T20:50:16.363Z,100.00
2023-03-10T20:55:23.229Z,100.00
2023-03-10T21:00:29.303Z,100.00
2023-03-10T21:05:39.331Z,100.00
2023-03-10T21:10:44.958Z,100.00
2023-03-10T21:15:48.160Z,100.00
2023-03-10T21:20:51.581Z,100.00
2023-03-10T21:25:56.645Z,100.00
2023-03-10T21:31:00.110Z,100.00
2023-03-10T21:36:03.759Z,100.00
2023-03-10T21:41:09.005Z,100.00
2023-03-10T21:46:12.716Z,100.00
2023-03-10T21:51:20.664Z,100.00
2023-03-10T21:56:28.279Z,100.00
2023-03-10T22:01:31.647Z,100.00
2023-03-10T22:06:34.875Z,100.00
2023-03-10T22:11:39.665Z,100.00
2023-03-10T22:16:43.282Z,100.00
2023-03-10T22:21:46.489Z,100.00
2023-03-10T22:26:51.209Z,100.00
2023-03-10T22:31:56.318Z,100.00
2023-03-10T22:36:59.544Z,100.00
2023-03-10T22:42:04.957Z,100.00
2023-03-10T22:47:08.993Z,100.00
2023-03-10T22:52:12.129Z,100.00
2023-03-10T22:57:16.867Z,100.00
2023-03-10T23:02:20.044Z,100.00
2023-03-10T23:07:23.158Z,100.00
2023-03-10T23:12:28.719Z,100.00
2023-03-10T23:17:35.240Z,100.00
2023-03-10T23:22:38.649Z,100.00
2023-03-10T23:27:43.319Z,100.00
2023-03-10T23:32:49.048Z,100.00
2023-03-10T23:37:52.694Z,100.00
2023-03-10T23:42:58.416Z,100.00
2023-03-10T23:48:04.834Z,100.00
2023-03-10T23:53:09.169Z,100.00
2023-03-10T23:58:14.441Z,100.00
